Погода Запрудныйна 2 недели

Ростовская область, Россия

20 мая-02 июня
  • 20мая
    Сегодня
    +9°
    +23°
    Облачно с прояснениями
    ВремяПогодаТемператураВлажностьДавлениеВетер, м/сВероятность осадков
    00:00Ясно и безоблачно+10°C81 %757 мм2.2 м/с2 %
    03:00Ясно и безоблачно+8°C84 %757 мм0.8 м/с2 %
    06:00Ясно и безоблачно+11°C75 %758 мм2.1 м/с2 %
    09:00Ясно и безоблачно+19°C49 %759 мм1.5 м/с2 %
    12:00Облачно с прояснениями+22°C34 %758 мм1.2 м/с2 %
    15:00Облачно с прояснениями+23°C30 %758 мм1.9 м/с2 %
    18:00Ясно и безоблачно+22°C31 %758 мм2.2 м/с2 %
    21:00Ясно и безоблачно+15°C50 %759 мм2.3 м/с2 %
  • 21мая
    Вторник
    +10°
    +26°
    Небольшая облачность
    ВремяПогодаТемператураВлажностьДавлениеВетер, м/сВероятность осадков
    00:00Ясно и безоблачно+12°C60 %759 мм2.3 м/с2 %
    03:00Ясно и безоблачно+10°C69 %759 мм1.3 м/с2 %
    06:00Ясно и безоблачно+12°C64 %760 мм1.1 м/с2 %
    09:00Ясно и безоблачно+22°C36 %761 мм0.8 м/с2 %
    12:00Пасмурно, сплошная облачность+24°C27 %761 мм0.8 м/с2 %
    15:00Небольшая облачность+25°C26 %760 мм1.6 м/с2 %
    18:00Ясно и безоблачно+24°C28 %759 мм2.0 м/с2 %
    21:00Ясно и безоблачно+18°C45 %760 мм0.9 м/с2 %
  • 22мая
    Среда
    +11°
    +27°
    Практически безоблачно
    ВремяПогодаТемператураВлажностьДавлениеВетер, м/сВероятность осадков
    00:00Ясно и безоблачно+15°C54 %759 мм1.2 м/с2 %
    03:00Ясно и безоблачно+11°C67 %759 мм0.8 м/с2 %
    06:00Ясно и безоблачно+13°C64 %760 мм1.8 м/с2 %
    09:00Ясно и безоблачно+23°C35 %760 мм0.8 м/с2 %
    12:00Пасмурно, сплошная облачность+26°C24 %760 мм2.2 м/с2 %
    15:00Практически безоблачно+27°C23 %759 мм2.5 м/с2 %
    18:00Ясно и безоблачно+25°C25 %758 мм1.5 м/с2 %
    21:00Ясно и безоблачно+20°C30 %758 мм1.2 м/с2 %
  • 23мая
    Четверг
    +11°
    +28°
    Небольшая облачность
    ВремяПогодаТемператураВлажностьДавлениеВетер, м/сВероятность осадков
    00:00Ясно и безоблачно+13°C49 %758 мм1.4 м/с2 %
    03:00Ясно и безоблачно+12°C49 %758 мм1.1 м/с2 %
    06:00Ясно и безоблачно+13°C57 %758 мм1.2 м/с2 %
    09:00Ясно и безоблачно+24°C36 %758 мм0.5 м/с2 %
    12:00Ясно и безоблачно+27°C24 %758 мм1.6 м/с9 %
    15:00Небольшая облачность+27°C26 %758 мм2.2 м/с28 %
    18:00Небольшая облачность+23°C37 %758 мм5.3 м/с19 %
    21:00Ясно и безоблачно+18°C53 %759 мм4.7 м/с2 %
  • 24мая
    Пятница
    +8°
    +22°
    Ясно и безоблачно
    ВремяПогодаТемператураВлажностьДавлениеВетер, м/сВероятность осадков
    00:00Ясно и безоблачно+15°C66 %760 мм5.2 м/с2 %
    03:00Ясно и безоблачно+13°C47 %761 мм6.7 м/с2 %
    06:00Ясно и безоблачно+11°C41 %763 мм6.3 м/с2 %
    09:00Ясно и безоблачно+17°C35 %764 мм6.5 м/с2 %
    12:00Ясно и безоблачно+21°C29 %764 мм6.4 м/с4 %
    15:00Ясно и безоблачно+22°C20 %764 мм6.7 м/с4 %
    18:00Ясно и безоблачно+20°C21 %764 мм6.8 м/с2 %
    21:00Ясно и безоблачно+15°C27 %765 мм5.4 м/с2 %
Мы используем cookies
Соглашаюсь